Time;durP1;ratioP1;P1;durP2;ratioP2;P2;SDS_P1;SDS_P2;PMS_P1;PMS_P2;Temp;Humidity;BMP_temperature;BMP_pressure;BME280_temperature;BME280_humidity;BME280_pressure;Samples;Min_cycle;Max_cycle;Signal;HPM_P1;HPM_P2
2023/01/17 00:01:08;;;;;;;4.50;2.47;;;;;;;;;;5063894;28;20028;-81
2023/01/17 00:09:51;;;;;;;3.38;2.30;;;;;;;;;;5082837;28;20265;-81
2023/01/17 00:11:58;;;;;;;3.95;2.42;;;;;;;;;;5081219;28;20031;-81
2023/01/17 00:14:24;;;;;;;3.83;2.08;;;;;;;;;;5064727;28;20481;-81
2023/01/17 00:16:49;;;;;;;3.20;2.05;;;;;;;;;;5064777;28;20021;-81
2023/01/17 01:33:45;;;;;;;2.85;1.60;;;;;;;;;;5078104;28;20031;-77
2023/01/17 01:36:10;;;;;;;3.15;1.70;;;;;;;;;;5077654;28;20020;-79
2023/01/17 01:38:35;;;;;;;2.97;1.70;;;;;;;;;;5077034;28;20020;-78
2023/01/17 01:41:01;;;;;;;3.30;1.65;;;;;;;;;;5059577;28;20397;-78
2023/01/17 01:43:47;;;;;;;2.55;1.50;;;;;;;;;;5076559;28;20082;-77
2023/01/17 01:46:20;;;;;;;2.95;1.38;;;;;;;;;;5058043;28;20032;-79
2023/01/17 01:48:55;;;;;;;1.90;1.40;;;;;;;;;;5076788;28;20025;-78
2023/01/17 01:51:40;;;;;;;3.58;1.65;;;;;;;;;;5076332;28;20257;-78
2023/01/17 01:54:38;;;;;;;1.95;1.40;;;;;;;;;;5076469;28;20032;-78
2023/01/17 01:57:07;;;;;;;2.05;1.30;;;;;;;;;;5076768;28;20412;-78
2023/01/17 01:59:33;;;;;;;2.58;1.17;;;;;;;;;;5077522;28;20049;-79
2023/01/17 02:02:00;;;;;;;3.80;1.40;;;;;;;;;;5076912;28;20024;-78
2023/01/17 02:04:27;;;;;;;2.88;1.48;;;;;;;;;;5076561;28;20097;-79
2023/01/17 02:07:00;;;;;;;1.85;1.10;;;;;;;;;;5076727;28;20371;-79
2023/01/17 02:09:26;;;;;;;2.00;1.25;;;;;;;;;;5076349;28;20024;-78
2023/01/17 02:11:51;;;;;;;2.67;1.23;;;;;;;;;;5076055;28;20116;-78
2023/01/17 02:14:19;;;;;;;1.52;1.15;;;;;;;;;;5076113;28;20116;-78
2023/01/17 02:17:18;;;;;;;3.05;1.30;;;;;;;;;;5059110;28;20023;-78
2023/01/17 02:20:25;;;;;;;3.40;1.25;;;;;;;;;;5057767;28;20032;-79
2023/01/17 02:23:21;;;;;;;1.58;1.13;;;;;;;;;;5075860;28;20470;-79
2023/01/17 02:26:29;;;;;;;1.90;0.90;;;;;;;;;;5057742;28;20455;-80
2023/01/17 02:29:23;;;;;;;1.55;1.02;;;;;;;;;;5058304;28;20078;-78
2023/01/17 02:31:57;;;;;;;1.40;1.05;;;;;;;;;;5057577;28;20062;-78
2023/01/17 02:34:55;;;;;;;1.67;1.15;;;;;;;;;;5075988;28;20032;-80
2023/01/17 02:37:55;;;;;;;1.48;1.08;;;;;;;;;;5075972;28;20025;-77
2023/01/17 02:40:29;;;;;;;2.15;1.10;;;;;;;;;;5066985;28;20036;-78
2023/01/17 02:43:01;;;;;;;1.40;0.98;;;;;;;;;;5076010;28;20477;-79
2023/01/17 02:45:27;;;;;;;1.33;1.00;;;;;;;;;;5058883;28;20024;-79
2023/01/17 02:47:52;;;;;;;1.15;0.90;;;;;;;;;;5076093;28;20029;-78
2023/01/17 02:50:21;;;;;;;2.58;1.10;;;;;;;;;;5076106;28;20024;-79
2023/01/17 02:53:05;;;;;;;1.40;0.90;;;;;;;;;;5075962;28;20025;-80
2023/01/17 02:55:58;;;;;;;1.65;0.95;;;;;;;;;;5075845;28;20036;-79
2023/01/17 02:58:39;;;;;;;1.27;0.80;;;;;;;;;;5076064;28;20054;-79
2023/01/17 03:02:02;;;;;;;0.88;0.60;;;;;;;;;;5075675;28;20020;-79
2023/01/17 03:04:42;;;;;;;1.08;0.60;;;;;;;;;;5042540;28;20068;-79
2023/01/17 03:07:16;;;;;;;2.17;0.63;;;;;;;;;;5075346;28;20029;-78
2023/01/17 03:09:44;;;;;;;0.47;0.40;;;;;;;;;;5075284;28;20017;-78
2023/01/17 03:12:10;;;;;;;0.40;0.30;;;;;;;;;;5057663;28;20033;-79
2023/01/17 03:14:36;;;;;;;0.88;0.40;;;;;;;;;;5074732;28;20031;-79
2023/01/17 03:17:01;;;;;;;0.28;0.22;;;;;;;;;;5074706;28;20024;-79
2023/01/17 03:19:26;;;;;;;0.20;0.20;;;;;;;;;;5074777;28;20098;-81
2023/01/17 03:21:51;;;;;;;0.52;0.30;;;;;;;;;;5056751;28;20032;-78
2023/01/17 03:24:16;;;;;;;0.10;0.10;;;;;;;;;;5074989;28;20024;-81
2023/01/17 03:26:46;;;;;;;0.17;0.15;;;;;;;;;;5075338;28;20363;-79
2023/01/17 03:29:12;;;;;;;0.47;0.20;;;;;;;;;;5075486;28;20071;-80
2023/01/17 03:31:37;;;;;;;0.20;0.20;;;;;;;;;;5075239;28;20130;-80
2023/01/17 03:34:02;;;;;;;0.52;0.20;;;;;;;;;;5074838;28;20024;-78
2023/01/17 03:36:27;;;;;;;0.47;0.20;;;;;;;;;;5074737;28;20084;-79
2023/01/17 03:38:52;;;;;;;0.05;0.05;;;;;;;;;;5074914;28;20020;-80
2023/01/17 03:41:18;;;;;;;0.00;0.00;;;;;;;;;;5074678;28;20036;-78
2023/01/17 03:43:43;;;;;;;0.25;0.25;;;;;;;;;;5057094;28;20018;-79
2023/01/17 03:46:20;;;;;;;0.10;0.10;;;;;;;;;;5075499;28;20056;-80
2023/01/17 03:48:45;;;;;;;0.10;0.10;;;;;;;;;;5075178;28;20489;-78
2023/01/17 03:51:10;;;;;;;0.20;0.20;;;;;;;;;;5056718;28;20086;-78
2023/01/17 03:53:35;;;;;;;0.35;0.25;;;;;;;;;;5074780;28;20021;-77
2023/01/17 03:58:36;;;;;;;0.30;0.30;;;;;;;;;;5246134;22;20318;-79
2023/01/17 04:01:01;;;;;;;0.30;0.20;;;;;;;;;;5035766;28;20051;-79
2023/01/17 04:03:26;;;;;;;0.30;0.30;;;;;;;;;;5035291;28;20270;-79
2023/01/17 04:05:51;;;;;;;0.23;0.20;;;;;;;;;;5035332;28;20322;-79
2023/01/17 04:08:17;;;;;;;0.10;0.10;;;;;;;;;;5034260;28;20782;-79
2023/01/17 04:10:42;;;;;;;0.25;0.25;;;;;;;;;;5017929;28;20630;-79
2023/01/17 04:13:07;;;;;;;0.17;0.17;;;;;;;;;;5017333;28;20440;-79
2023/01/17 04:15:33;;;;;;;0.30;0.10;;;;;;;;;;5016751;28;20623;-79
2023/01/17 04:17:58;;;;;;;0.30;0.30;;;;;;;;;;5034716;28;20041;-78
2023/01/17 04:20:43;;;;;;;0.43;0.30;;;;;;;;;;5034649;28;20386;-79
2023/01/17 04:23:09;;;;;;;0.32;0.30;;;;;;;;;;5017111;28;20037;-81
2023/01/17 04:25:34;;;;;;;0.30;0.30;;;;;;;;;;5018627;28;20075;-80
2023/01/17 04:28:01;;;;;;;1.13;0.40;;;;;;;;;;5023214;28;20546;-81
2023/01/17 04:30:27;;;;;;;0.30;0.30;;;;;;;;;;5037932;28;20029;-80
2023/01/17 04:32:53;;;;;;;0.75;0.60;;;;;;;;;;5020602;28;20437;-80
2023/01/17 04:35:18;;;;;;;0.22;0.22;;;;;;;;;;5042578;28;20095;-80
2023/01/17 04:37:43;;;;;;;0.17;0.17;;;;;;;;;;5045104;28;20033;-80
2023/01/17 04:40:12;;;;;;;0.63;0.40;;;;;;;;;;5027443;28;20037;-81
2023/01/17 04:42:37;;;;;;;1.48;0.50;;;;;;;;;;5028167;28;20266;-80
2023/01/17 04:45:03;;;;;;;1.25;0.43;;;;;;;;;;5045988;28;20036;-82
2023/01/17 04:47:28;;;;;;;0.35;0.30;;;;;;;;;;5027460;28;20033;-80
2023/01/17 04:49:54;;;;;;;0.43;0.40;;;;;;;;;;5045033;28;20026;-82
2023/01/17 04:52:19;;;;;;;0.40;0.40;;;;;;;;;;5043641;28;20048;-81
2023/01/17 04:54:48;;;;;;;0.40;0.40;;;;;;;;;;5026540;28;20021;-82
2023/01/17 04:57:15;;;;;;;0.52;0.30;;;;;;;;;;5045885;28;20021;-81
2023/01/17 04:59:40;;;;;;;0.40;0.40;;;;;;;;;;5028036;28;20025;-81
2023/01/17 05:02:05;;;;;;;0.50;0.45;;;;;;;;;;5047318;28;20013;-80
2023/01/17 05:04:30;;;;;;;1.10;0.30;;;;;;;;;;5029423;28;20058;-82
2023/01/17 05:06:56;;;;;;;0.30;0.30;;;;;;;;;;5028460;28;20266;-82
2023/01/17 05:09:21;;;;;;;0.50;0.50;;;;;;;;;;5047150;28;20255;-81
2023/01/17 05:11:46;;;;;;;1.15;0.60;;;;;;;;;;5028676;28;20265;-81
2023/01/17 05:14:11;;;;;;;0.87;0.40;;;;;;;;;;5046989;28;20060;-81
2023/01/17 05:16:37;;;;;;;0.38;0.38;;;;;;;;;;5028791;28;20251;-81
2023/01/17 05:19:02;;;;;;;0.82;0.40;;;;;;;;;;5047738;28;20029;-82
2023/01/17 05:21:29;;;;;;;1.97;0.53;;;;;;;;;;5047783;28;20037;-81
2023/01/17 05:23:54;;;;;;;0.60;0.43;;;;;;;;;;5047174;28;20255;-81
2023/01/17 05:26:19;;;;;;;0.77;0.40;;;;;;;;;;5028667;28;20032;-82
2023/01/17 05:28:44;;;;;;;1.00;0.50;;;;;;;;;;5044871;28;20108;-80
2023/01/17 05:31:10;;;;;;;0.57;0.57;;;;;;;;;;5045239;28;20255;-80
2023/01/17 05:33:35;;;;;;;1.13;0.40;;;;;;;;;;5043413;28;20030;-80
2023/01/17 05:36:00;;;;;;;0.65;0.40;;;;;;;;;;5043545;28;20274;-81
2023/01/17 05:38:25;;;;;;;0.50;0.43;;;;;;;;;;5042607;28;20025;-81
2023/01/17 05:40:51;;;;;;;1.70;0.60;;;;;;;;;;5025941;28;20030;-82
2023/01/17 05:43:16;;;;;;;0.70;0.45;;;;;;;;;;5025541;28;20271;-81
2023/01/17 05:45:41;;;;;;;4.85;0.52;;;;;;;;;;5024754;28;20051;-82
2023/01/17 05:48:07;;;;;;;0.47;0.40;;;;;;;;;;5027019;28;20033;-81
2023/01/17 05:50:35;;;;;;;0.80;0.60;;;;;;;;;;5026814;28;20358;-82
2023/01/17 05:53:08;;;;;;;1.33;0.40;;;;;;;;;;5044171;28;20026;-81
2023/01/17 05:55:34;;;;;;;0.95;0.43;;;;;;;;;;5044721;28;20379;-81
2023/01/17 05:58:00;;;;;;;1.00;0.40;;;;;;;;;;5044057;28;20120;-82
2023/01/17 06:00:26;;;;;;;2.97;0.60;;;;;;;;;;5043596;28;20029;-81
2023/01/17 06:02:53;;;;;;;0.60;0.45;;;;;;;;;;5042533;28;20075;-81
2023/01/17 06:05:20;;;;;;;0.60;0.47;;;;;;;;;;5045381;28;20159;-81
2023/01/17 06:07:46;;;;;;;0.63;0.50;;;;;;;;;;5045484;28;20031;-80
2023/01/17 06:10:15;;;;;;;1.40;0.80;;;;;;;;;;5027260;28;20028;-80
2023/01/17 06:12:42;;;;;;;1.23;0.60;;;;;;;;;;5045390;28;20082;-81
2023/01/17 06:15:08;;;;;;;0.82;0.60;;;;;;;;;;5045846;28;20093;-82
2023/01/17 06:17:34;;;;;;;0.73;0.43;;;;;;;;;;5046951;28;20022;-80
2023/01/17 06:19:59;;;;;;;0.47;0.47;;;;;;;;;;5046654;28;20037;-81
2023/01/17 06:22:24;;;;;;;0.45;0.45;;;;;;;;;;5045307;28;20113;-81
2023/01/17 06:24:49;;;;;;;0.60;0.50;;;;;;;;;;5044847;28;20033;-82
2023/01/17 06:27:15;;;;;;;4.53;0.70;;;;;;;;;;5026940;28;20029;-81
2023/01/17 06:29:40;;;;;;;0.40;0.40;;;;;;;;;;5045830;28;20254;-81
2023/01/17 06:32:05;;;;;;;0.85;0.60;;;;;;;;;;5027432;28;20022;-81
2023/01/17 06:34:30;;;;;;;3.25;1.13;;;;;;;;;;5045532;28;20029;-81
2023/01/17 06:36:56;;;;;;;1.15;0.75;;;;;;;;;;5045638;28;20032;-82
2023/01/17 06:39:21;;;;;;;1.08;0.60;;;;;;;;;;5045624;28;20052;-81
2023/01/17 06:41:46;;;;;;;0.40;0.40;;;;;;;;;;5045250;28;20032;-82
2023/01/17 06:44:11;;;;;;;0.93;0.40;;;;;;;;;;5044154;28;20035;-82
2023/01/17 06:46:37;;;;;;;1.60;0.50;;;;;;;;;;5024990;28;20270;-82
2023/01/17 06:49:02;;;;;;;1.20;0.40;;;;;;;;;;5043346;28;20029;-82
2023/01/17 06:51:27;;;;;;;0.50;0.50;;;;;;;;;;5043782;28;20450;-82
2023/01/17 06:53:52;;;;;;;3.67;0.80;;;;;;;;;;5026308;28;20025;-82
2023/01/17 06:56:18;;;;;;;1.35;0.80;;;;;;;;;;5026055;28;20029;-81
2023/01/17 06:58:49;;;;;;;1.73;0.50;;;;;;;;;;5025776;28;20025;-80
2023/01/17 07:01:14;;;;;;;0.88;0.52;;;;;;;;;;5044684;28;20025;-78
2023/01/17 07:03:39;;;;;;;0.80;0.60;;;;;;;;;;5044291;28;20033;-80
2023/01/17 07:06:04;;;;;;;7.33;0.70;;;;;;;;;;5045375;28;20288;-81
2023/01/17 07:08:30;;;;;;;1.90;0.68;;;;;;;;;;5044886;28;20262;-82
2023/01/17 07:11:03;;;;;;;1.33;0.65;;;;;;;;;;5043263;28;20025;-81
2023/01/17 07:13:32;;;;;;;0.95;0.63;;;;;;;;;;5043931;28;20040;-81
2023/01/17 07:15:59;;;;;;;1.33;0.70;;;;;;;;;;5044957;28;20061;-81
2023/01/17 07:18:24;;;;;;;0.98;0.70;;;;;;;;;;5044090;28;20025;-80
2023/01/17 07:20:49;;;;;;;1.50;0.80;;;;;;;;;;5041973;28;20029;-80
2023/01/17 07:23:15;;;;;;;1.33;0.55;;;;;;;;;;5039023;28;20281;-81
2023/01/17 07:25:40;;;;;;;1.73;0.60;;;;;;;;;;5040065;28;20037;-80
2023/01/17 07:28:05;;;;;;;0.63;0.63;;;;;;;;;;5040797;28;20025;-81
2023/01/17 07:30:30;;;;;;;1.65;0.50;;;;;;;;;;5039968;28;20100;-79
2023/01/17 07:32:55;;;;;;;0.40;0.40;;;;;;;;;;5021875;28;20029;-80
2023/01/17 07:35:22;;;;;;;1.48;0.50;;;;;;;;;;5022630;28;20309;-82
2023/01/17 07:37:49;;;;;;;0.85;0.40;;;;;;;;;;5040471;28;20033;-80
2023/01/17 07:40:18;;;;;;;5.45;0.70;;;;;;;;;;5041856;28;20187;-80
2023/01/17 07:42:43;;;;;;;0.50;0.40;;;;;;;;;;5023255;28;20021;-81
2023/01/17 07:45:10;;;;;;;1.02;0.80;;;;;;;;;;5040898;28;20037;-81
2023/01/17 07:47:36;;;;;;;1.25;0.63;;;;;;;;;;5041063;28;20025;-80
2023/01/17 07:50:02;;;;;;;0.52;0.52;;;;;;;;;;5041420;28;20532;-80
2023/01/17 07:52:27;;;;;;;0.57;0.47;;;;;;;;;;5041313;28;20079;-81
2023/01/17 07:54:52;;;;;;;1.13;0.60;;;;;;;;;;5043274;28;20417;-81
2023/01/17 07:57:18;;;;;;;0.90;0.47;;;;;;;;;;5043610;28;20037;-81
2023/01/17 07:59:43;;;;;;;0.73;0.50;;;;;;;;;;5042788;28;20281;-81
2023/01/17 08:02:20;;;;;;;0.70;0.60;;;;;;;;;;5047101;28;20670;-80
2023/01/17 08:04:46;;;;;;;0.77;0.70;;;;;;;;;;5048320;28;20037;-80
2023/01/17 08:07:12;;;;;;;0.50;0.30;;;;;;;;;;5048626;28;20056;-80
2023/01/17 08:09:38;;;;;;;1.77;0.52;;;;;;;;;;5047822;28;20026;-81
2023/01/17 08:12:04;;;;;;;3.15;0.70;;;;;;;;;;5047895;28;20036;-80
2023/01/17 08:14:29;;;;;;;0.75;0.70;;;;;;;;;;5048346;28;20026;-80
2023/01/17 08:17:03;;;;;;;1.55;0.50;;;;;;;;;;5048223;28;20052;-80
2023/01/17 08:19:28;;;;;;;0.45;0.40;;;;;;;;;;5048547;28;20022;-80
2023/01/17 08:21:53;;;;;;;3.30;0.50;;;;;;;;;;5047432;28;20028;-82
2023/01/17 08:24:18;;;;;;;1.43;0.70;;;;;;;;;;5047396;28;20735;-81
2023/01/17 08:26:44;;;;;;;1.43;0.70;;;;;;;;;;5048591;28;20724;-82
2023/01/17 08:29:09;;;;;;;1.10;0.70;;;;;;;;;;5045416;28;20285;-82
2023/01/17 08:31:34;;;;;;;0.90;0.70;;;;;;;;;;5047136;28;20120;-83
2023/01/17 08:34:00;;;;;;;0.60;0.52;;;;;;;;;;5029973;28;20266;-82
2023/01/17 08:36:27;;;;;;;0.75;0.50;;;;;;;;;;5046569;28;20053;-82
2023/01/17 08:38:52;;;;;;;1.98;0.82;;;;;;;;;;5029000;28;20025;-82
2023/01/17 08:41:19;;;;;;;1.40;0.70;;;;;;;;;;5046345;28;20025;-82
2023/01/17 08:43:49;;;;;;;1.42;0.90;;;;;;;;;;5026973;28;20045;-82
2023/01/17 08:46:16;;;;;;;1.05;0.80;;;;;;;;;;5043956;28;20029;-82
2023/01/17 08:48:41;;;;;;;1.77;0.80;;;;;;;;;;5044963;28;20036;-82
2023/01/17 08:51:07;;;;;;;1.20;0.90;;;;;;;;;;5045922;28;20025;-81
2023/01/17 08:53:32;;;;;;;2.38;0.95;;;;;;;;;;5045561;28;20017;-82
2023/01/17 08:56:02;;;;;;;2.45;0.90;;;;;;;;;;5045240;28;20025;-82
2023/01/17 08:58:29;;;;;;;1.88;0.80;;;;;;;;;;5027577;28;20045;-81
2023/01/17 09:00:57;;;;;;;4.50;0.77;;;;;;;;;;5027773;28;20076;-81
2023/01/17 09:03:23;;;;;;;1.05;0.70;;;;;;;;;;5026854;28;20017;-82
2023/01/17 09:05:48;;;;;;;0.83;0.60;;;;;;;;;;5028241;28;20061;-80
2023/01/17 09:08:13;;;;;;;1.02;0.90;;;;;;;;;;5028726;28;20273;-80
2023/01/17 09:10:38;;;;;;;2.67;0.80;;;;;;;;;;5029614;28;20025;-80
2023/01/17 09:13:06;;;;;;;0.93;0.80;;;;;;;;;;5046041;28;20029;-80
2023/01/17 09:15:32;;;;;;;2.13;0.77;;;;;;;;;;5044627;28;20261;-81
2023/01/17 09:17:57;;;;;;;2.47;0.80;;;;;;;;;;5044319;28;20017;-80
2023/01/17 09:20:23;;;;;;;1.17;0.65;;;;;;;;;;5045546;28;20030;-80
2023/01/17 09:22:50;;;;;;;2.65;0.80;;;;;;;;;;5046767;28;20022;-81
2023/01/17 09:25:15;;;;;;;1.08;0.70;;;;;;;;;;5046363;28;20056;-81
2023/01/17 09:27:44;;;;;;;2.60;0.70;;;;;;;;;;5047945;28;20077;-82
2023/01/17 09:30:10;;;;;;;1.30;0.80;;;;;;;;;;5046729;28;20485;-80
2023/01/17 09:32:35;;;;;;;1.45;0.68;;;;;;;;;;5029660;28;20056;-81
2023/01/17 09:35:02;;;;;;;0.52;0.47;;;;;;;;;;5044688;28;20416;-82
2023/01/17 09:37:27;;;;;;;0.88;0.60;;;;;;;;;;5045252;28;20029;-81
2023/01/17 09:39:52;;;;;;;0.70;0.60;;;;;;;;;;5046354;28;20033;-81
2023/01/17 09:42:31;;;;;;;0.90;0.63;;;;;;;;;;5043627;28;20278;-80
2023/01/17 09:44:56;;;;;;;0.80;0.50;;;;;;;;;;5038272;28;20093;-80
2023/01/17 09:47:42;;;;;;;0.95;0.47;;;;;;;;;;5039695;28;20052;-80
2023/01/17 09:50:27;;;;;;;1.27;0.70;;;;;;;;;;5040109;28;20060;-82
2023/01/17 09:53:05;;;;;;;1.88;0.90;;;;;;;;;;5025513;28;20028;-81
2023/01/17 09:55:36;;;;;;;0.68;0.50;;;;;;;;;;5041448;28;20576;-81
2023/01/17 09:58:19;;;;;;;0.73;0.60;;;;;;;;;;5040698;28;20037;-81
2023/01/17 10:01:03;;;;;;;1.73;0.68;;;;;;;;;;5025625;28;20083;-82
2023/01/17 10:03:45;;;;;;;1.08;0.68;;;;;;;;;;5043406;28;20085;-81
2023/01/17 10:06:44;;;;;;;2.28;0.80;;;;;;;;;;5043196;28;20056;-83
2023/01/17 10:09:19;;;;;;;0.80;0.45;;;;;;;;;;5026615;28;20116;-81
2023/01/17 10:12:01;;;;;;;1.33;0.63;;;;;;;;;;5024906;28;20032;-80
2023/01/17 10:14:41;;;;;;;2.00;0.90;;;;;;;;;;5043633;28;20108;-81
2023/01/17 10:17:21;;;;;;;2.03;0.70;;;;;;;;;;5043881;28;20029;-81
2023/01/17 10:20:13;;;;;;;1.63;0.85;;;;;;;;;;5043921;28;20056;-80
2023/01/17 10:23:05;;;;;;;1.42;0.70;;;;;;;;;;5043278;28;20385;-81
2023/01/17 10:25:48;;;;;;;0.82;0.60;;;;;;;;;;5042771;28;20524;-80
2023/01/17 10:28:20;;;;;;;2.70;0.75;;;;;;;;;;5042320;28;20029;-81
2023/01/17 10:30:51;;;;;;;1.10;0.77;;;;;;;;;;5042310;28;20040;-81
2023/01/17 10:33:19;;;;;;;1.65;0.68;;;;;;;;;;5042406;28;20025;-82
2023/01/17 10:36:02;;;;;;;0.75;0.50;;;;;;;;;;5025360;28;20025;-82
2023/01/17 10:38:34;;;;;;;0.93;0.77;;;;;;;;;;5023680;28;20163;-81
2023/01/17 10:41:04;;;;;;;1.88;1.00;;;;;;;;;;5017821;28;20584;-78
2023/01/17 10:44:05;;;;;;;1.02;0.63;;;;;;;;;;5018139;28;20029;-78
2023/01/17 10:46:37;;;;;;;3.55;0.68;;;;;;;;;;5040866;28;20037;-81
2023/01/17 10:49:02;;;;;;;1.45;0.55;;;;;;;;;;5024314;28;20064;-82
2023/01/17 10:51:42;;;;;;;4.07;0.70;;;;;;;;;;5024133;28;20026;-81
2023/01/17 10:54:13;;;;;;;2.92;0.88;;;;;;;;;;5042956;28;20025;-81
2023/01/17 10:56:40;;;;;;;0.50;0.50;;;;;;;;;;5042165;28;20033;-82
2023/01/17 10:59:22;;;;;;;0.60;0.50;;;;;;;;;;5041158;28;20090;-82
2023/01/17 11:01:47;;;;;;;0.95;0.63;;;;;;;;;;5042144;28;20029;-81
2023/01/17 11:04:19;;;;;;;0.63;0.60;;;;;;;;;;5038829;28;20116;-80
2023/01/17 11:06:46;;;;;;;1.15;0.60;;;;;;;;;;5023758;28;20659;-82
2023/01/17 11:09:11;;;;;;;1.60;0.73;;;;;;;;;;5040341;28;20021;-80
2023/01/17 11:11:46;;;;;;;0.90;0.70;;;;;;;;;;5023729;28;20025;-82
2023/01/17 11:14:19;;;;;;;1.42;0.80;;;;;;;;;;5041974;28;20032;-82
2023/01/17 11:17:03;;;;;;;1.13;0.80;;;;;;;;;;5023946;28;20029;-81
2023/01/17 11:19:35;;;;;;;0.73;0.47;;;;;;;;;;5024252;28;20040;-82
2023/01/17 11:22:03;;;;;;;1.23;0.70;;;;;;;;;;5042213;28;20100;-82
2023/01/17 11:24:34;;;;;;;0.63;0.60;;;;;;;;;;5024328;28;20083;-81
2023/01/17 11:26:59;;;;;;;2.00;0.68;;;;;;;;;;5024414;28;20026;-82
2023/01/17 11:29:31;;;;;;;3.17;1.08;;;;;;;;;;5040464;28;20033;-82
2023/01/17 11:31:56;;;;;;;1.15;0.80;;;;;;;;;;5023762;28;20112;-82
2023/01/17 11:34:30;;;;;;;2.78;0.60;;;;;;;;;;5041826;28;20080;-82
2023/01/17 11:37:15;;;;;;;2.65;0.77;;;;;;;;;;5023299;28;20048;-81
2023/01/17 11:39:40;;;;;;;1.92;0.90;;;;;;;;;;5042520;28;20044;-83
2023/01/17 11:42:35;;;;;;;3.10;0.70;;;;;;;;;;5041123;28;20481;-81
2023/01/17 11:45:23;;;;;;;0.82;0.60;;;;;;;;;;5041523;28;20080;-81
2023/01/17 11:47:48;;;;;;;1.17;0.50;;;;;;;;;;5042012;28;20362;-82
2023/01/17 11:50:24;;;;;;;0.68;0.52;;;;;;;;;;5042129;28;20025;-81
2023/01/17 11:52:49;;;;;;;1.45;0.57;;;;;;;;;;5041127;28;20029;-81
2023/01/17 11:55:16;;;;;;;0.75;0.45;;;;;;;;;;5040917;28;20028;-83
2023/01/17 11:57:41;;;;;;;1.10;0.70;;;;;;;;;;5042163;28;20033;-81
2023/01/17 12:00:18;;;;;;;1.13;0.50;;;;;;;;;;5043230;28;20026;-82
2023/01/17 12:03:13;;;;;;;1.02;0.68;;;;;;;;;;5040723;28;20452;-81
2023/01/17 12:05:52;;;;;;;1.27;0.63;;;;;;;;;;5024382;28;20037;-79
2023/01/17 12:08:39;;;;;;;0.90;0.63;;;;;;;;;;5023255;28;20053;-81
2023/01/17 12:11:19;;;;;;;1.13;0.70;;;;;;;;;;5042483;28;20099;-81
2023/01/17 12:14:21;;;;;;;0.55;0.50;;;;;;;;;;5025476;28;20022;-81
2023/01/17 12:16:52;;;;;;;0.70;0.70;;;;;;;;;;5013067;28;20042;-82
2023/01/17 12:19:59;;;;;;;0.60;0.55;;;;;;;;;;5025260;28;20512;-83
2023/01/17 12:23:04;;;;;;;0.88;0.50;;;;;;;;;;5043106;28;20080;-82
2023/01/17 12:25:54;;;;;;;1.30;0.63;;;;;;;;;;5022927;28;20093;-82
2023/01/17 12:28:53;;;;;;;0.63;0.45;;;;;;;;;;5043339;28;20029;-82
2023/01/17 12:31:52;;;;;;;1.60;0.70;;;;;;;;;;5025684;28;20120;-82
2023/01/17 12:34:21;;;;;;;1.67;1.00;;;;;;;;;;5025233;28;20478;-81
2023/01/17 12:36:52;;;;;;;0.68;0.65;;;;;;;;;;5043324;28;20120;-82
2023/01/17 12:39:24;;;;;;;2.40;0.90;;;;;;;;;;5043162;28;20048;-82
2023/01/17 12:41:58;;;;;;;2.05;0.93;;;;;;;;;;5042794;28;20021;-81
2023/01/17 12:44:37;;;;;;;5.47;0.98;;;;;;;;;;5043351;28;20099;-81
2023/01/17 12:47:04;;;;;;;1.80;0.70;;;;;;;;;;5042648;28;20026;-82
2023/01/17 12:49:40;;;;;;;0.82;0.70;;;;;;;;;;5029269;28;20441;-81
2023/01/17 12:52:16;;;;;;;1.35;0.75;;;;;;;;;;5047111;28;20022;-82
2023/01/17 12:54:45;;;;;;;1.90;0.80;;;;;;;;;;5027867;28;20394;-82
2023/01/17 12:57:16;;;;;;;2.40;0.80;;;;;;;;;;5046044;28;20029;-81
2023/01/17 12:59:49;;;;;;;0.55;0.55;;;;;;;;;;5046473;28;20025;-82
2023/01/17 13:02:55;;;;;;;1.60;0.70;;;;;;;;;;5046733;28;20110;-81
2023/01/17 13:05:35;;;;;;;1.35;0.82;;;;;;;;;;5046863;28;20539;-81
2023/01/17 13:08:33;;;;;;;1.98;0.82;;;;;;;;;;5028924;28;20079;-83
2023/01/17 13:11:05;;;;;;;1.30;1.00;;;;;;;;;;5045154;28;20022;-82
2023/01/17 13:13:31;;;;;;;1.02;0.60;;;;;;;;;;5027384;28;20067;-83
2023/01/17 13:16:06;;;;;;;1.05;0.88;;;;;;;;;;5045604;28;20036;-82
2023/01/17 13:18:32;;;;;;;1.40;0.80;;;;;;;;;;5045034;28;20116;-82
2023/01/17 13:21:22;;;;;;;0.93;0.80;;;;;;;;;;5046797;28;20026;-82
2023/01/17 13:24:02;;;;;;;0.90;0.70;;;;;;;;;;5046287;28;20037;-82
2023/01/17 13:26:49;;;;;;;1.85;0.55;;;;;;;;;;5027926;28;20039;-82
2023/01/17 13:29:44;;;;;;;1.75;0.63;;;;;;;;;;5045623;28;20051;-81
2023/01/17 13:32:35;;;;;;;1.35;0.77;;;;;;;;;;5044796;28;20075;-81
2023/01/17 13:35:13;;;;;;;1.40;0.90;;;;;;;;;;5045579;28;20540;-81
2023/01/17 13:38:01;;;;;;;2.20;0.85;;;;;;;;;;5044513;28;20029;-81
2023/01/17 13:40:49;;;;;;;1.77;0.63;;;;;;;;;;5044915;28;20381;-81
2023/01/17 13:43:21;;;;;;;1.13;0.68;;;;;;;;;;5044881;28;20021;-80
2023/01/17 13:45:52;;;;;;;0.70;0.70;;;;;;;;;;5027302;28;20076;-81
2023/01/17 13:48:17;;;;;;;0.98;0.60;;;;;;;;;;5044167;28;20021;-82
2023/01/17 13:50:59;;;;;;;0.90;0.70;;;;;;;;;;5025283;28;20087;-82
2023/01/17 13:53:27;;;;;;;1.02;0.70;;;;;;;;;;5025573;28;20021;-80
2023/01/17 13:56:01;;;;;;;1.10;0.70;;;;;;;;;;5025079;28;20071;-81
2023/01/17 13:58:48;;;;;;;1.40;0.68;;;;;;;;;;5026318;28;20040;-82
2023/01/17 14:01:37;;;;;;;0.90;0.60;;;;;;;;;;5030860;28;20037;-81
2023/01/17 14:04:10;;;;;;;1.70;0.80;;;;;;;;;;5044115;28;20048;-82
2023/01/17 14:06:47;;;;;;;1.45;0.80;;;;;;;;;;5025818;28;20029;-81
2023/01/17 14:09:22;;;;;;;1.85;0.77;;;;;;;;;;5044540;28;20030;-82
2023/01/17 14:11:51;;;;;;;1.13;0.90;;;;;;;;;;5044838;28;20021;-80
2023/01/17 14:14:42;;;;;;;3.17;0.98;;;;;;;;;;5043799;28;20085;-83
2023/01/17 14:17:35;;;;;;;1.30;0.85;;;;;;;;;;5027303;28;20073;-81
2023/01/17 14:20:03;;;;;;;1.33;0.85;;;;;;;;;;5035877;28;20041;-82
2023/01/17 14:22:34;;;;;;;3.00;1.00;;;;;;;;;;5045034;28;20021;-80
2023/01/17 14:25:16;;;;;;;2.90;0.80;;;;;;;;;;5045442;28;20037;-82
2023/01/17 14:27:41;;;;;;;3.70;1.23;;;;;;;;;;5044447;28;20032;-82
2023/01/17 14:30:32;;;;;;;3.80;0.90;;;;;;;;;;5044617;28;20037;-82
2023/01/17 14:32:58;;;;;;;1.60;0.80;;;;;;;;;;5044765;28;20022;-83
2023/01/17 14:35:30;;;;;;;1.60;0.80;;;;;;;;;;5045181;28;20029;-81
2023/01/17 14:37:56;;;;;;;3.88;0.80;;;;;;;;;;5044487;28;20025;-82
2023/01/17 14:40:29;;;;;;;2.25;0.68;;;;;;;;;;5026626;28;20050;-83
2023/01/17 14:43:10;;;;;;;0.77;0.73;;;;;;;;;;5044481;28;20025;-81
2023/01/17 14:45:37;;;;;;;1.63;0.88;;;;;;;;;;5043971;28;20033;-82
2023/01/17 14:48:05;;;;;;;2.08;1.15;;;;;;;;;;5044445;28;20076;-82
2023/01/17 14:50:38;;;;;;;1.70;0.82;;;;;;;;;;5026575;28;20052;-80
2023/01/17 14:53:14;;;;;;;2.83;1.13;;;;;;;;;;5044272;28;20021;-81
2023/01/17 14:55:50;;;;;;;2.80;0.80;;;;;;;;;;5044532;28;20032;-82
2023/01/17 14:58:19;;;;;;;4.63;0.98;;;;;;;;;;5026886;28;20028;-82
2023/01/17 15:00:48;;;;;;;1.38;0.95;;;;;;;;;;5027402;28;20032;-83
2023/01/17 15:03:13;;;;;;;3.20;1.20;;;;;;;;;;5043939;28;20387;-81
2023/01/17 15:05:41;;;;;;;2.95;0.82;;;;;;;;;;5043375;28;20029;-82
2023/01/17 15:08:18;;;;;;;1.45;0.80;;;;;;;;;;5043386;28;20072;-80
2023/01/17 15:10:54;;;;;;;1.60;0.93;;;;;;;;;;5042470;28;20037;-80
2023/01/17 15:13:26;;;;;;;1.85;0.90;;;;;;;;;;5041235;28;20438;-82
2023/01/17 15:16:19;;;;;;;1.13;0.70;;;;;;;;;;5042942;28;20026;-81
2023/01/17 15:18:45;;;;;;;2.55;1.15;;;;;;;;;;5024952;28;20112;-82
2023/01/17 15:21:13;;;;;;;1.90;1.00;;;;;;;;;;5042506;28;20056;-82
2023/01/17 15:23:45;;;;;;;1.17;0.90;;;;;;;;;;5025109;28;20063;-83
2023/01/17 15:26:17;;;;;;;2.15;0.93;;;;;;;;;;5043796;28;20039;-82
2023/01/17 15:28:45;;;;;;;2.22;1.10;;;;;;;;;;5042663;28;20029;-83
2023/01/17 15:31:14;;;;;;;1.45;1.08;;;;;;;;;;5041967;28;20049;-82
2023/01/17 15:33:48;;;;;;;2.10;1.15;;;;;;;;;;5041780;28;20398;-82
2023/01/17 15:36:23;;;;;;;2.05;1.17;;;;;;;;;;5041138;28;20025;-83
2023/01/17 15:39:00;;;;;;;1.35;1.10;;;;;;;;;;5023610;28;20035;-83
2023/01/17 15:41:32;;;;;;;1.88;1.05;;;;;;;;;;5024440;28;20021;-82
2023/01/17 15:43:58;;;;;;;1.73;0.95;;;;;;;;;;5024341;28;20028;-82
2023/01/17 15:46:41;;;;;;;1.30;1.08;;;;;;;;;;5041273;28;20108;-83
2023/01/17 15:49:14;;;;;;;2.07;1.20;;;;;;;;;;5041699;28;20029;-81
2023/01/17 15:51:49;;;;;;;3.03;1.00;;;;;;;;;;5042202;28;20037;-83
2023/01/17 15:54:27;;;;;;;1.77;1.15;;;;;;;;;;5023324;28;20030;-82
2023/01/17 15:57:19;;;;;;;2.75;1.30;;;;;;;;;;5041287;28;20029;-83
2023/01/17 15:59:50;;;;;;;2.08;1.20;;;;;;;;;;5041397;28;20032;-83
2023/01/17 16:02:33;;;;;;;2.70;1.55;;;;;;;;;;5041494;28;20057;-82
2023/01/17 16:05:03;;;;;;;2.53;1.70;;;;;;;;;;5039987;28;20037;-83
2023/01/17 16:07:35;;;;;;;7.90;2.05;;;;;;;;;;5040844;28;20367;-83
2023/01/17 16:10:14;;;;;;;2.72;1.30;;;;;;;;;;5042874;28;20045;-82
2023/01/17 16:12:40;;;;;;;4.22;1.85;;;;;;;;;;5041531;28;20068;-82
2023/01/17 16:15:06;;;;;;;4.85;1.90;;;;;;;;;;5041562;28;20083;-82
2023/01/17 16:17:31;;;;;;;4.50;1.70;;;;;;;;;;5041750;28;20407;-82
2023/01/17 16:19:56;;;;;;;5.25;1.67;;;;;;;;;;5023458;28;20032;-82
2023/01/17 16:22:22;;;;;;;5.15;1.98;;;;;;;;;;5042476;28;20028;-82
2023/01/17 16:24:47;;;;;;;4.38;1.92;;;;;;;;;;5027551;28;20026;-80
2023/01/17 16:27:12;;;;;;;6.87;2.30;;;;;;;;;;5027926;28;20033;-81
2023/01/17 16:29:37;;;;;;;3.67;1.90;;;;;;;;;;5027195;28;20286;-82
2023/01/17 16:32:07;;;;;;;4.40;2.30;;;;;;;;;;5046020;28;20278;-82
2023/01/17 16:34:33;;;;;;;8.57;2.60;;;;;;;;;;5046100;28;20057;-82